Glenboro, Canada
Current Conditions -  °F | °C
As of 9:34 PM on Monday 26 Jan 2015 (Local Time) from CYBR Reporting Station
Moderate Fog Moderate Fog  
Wind Chill: 19°   Ceiling: Unl
Heat Index: 19°   Visibility: 0.25mi
Dew Point: 18°   Wind: 2mph
Humidity: 93%   Direction: 270°W
Pressure: 29.92"   Gusts: NA
Location:  49.55°N, 99.28°W
Report Text: CYBR 270334Z 27002KT 1/4SM FZFG SKC M07/M08 A2992 RMK FG1 SLP159
Loading
Personal Weather Stations






























Interactive Weather Map New forecast layout! Learn more

10-Day Weather Forecast

Advertisements
Track Severe Weather on mobile